Airfield :
LOGIN :

Register | Disclaimer

   EN    FR    IT 

 










Legend :    VFR   Marginal VFR   IFR   Intensive IFR   Very Intensive IFR
Visi :
Ceiling :
>= 8 km
>= 3000ft
5 to 8 km
1000 to 3000 ft
1500m to 5 km
500 to 1000 ft
800 to 1500m
200 to 500 ft
< 800m
< 200 ft
Symbols :   Thunderstorms  Fog  Heavy snow  Heavy precipitations  Wind > 20 kt
SIGMETs :     Misc.  Thunderstorms  Icing  Turbulence  Mountain Waves  Volcanic Ashes






- Airport Elevation : 697 ft
- IATA code : PEG


LIRZ - San Edigio Perugia

CURRENT METAR :
  • 160520Z AUTO 18006KT 9999 FEW062/// 15/10 Q1011

EXPIRED METARs :
  • 160450Z AUTO 17004KT 9999 FEW062/// SCT130/// 15/09 Q1011
  • 160420Z AUTO 17006KT 9999 FEW035/// BKN130/// 15/09 Q1011
  • 160350Z AUTO 15008KT 9999 BKN028/// 15/09 Q1011
  • 160320Z AUTO 15009KT 9999 OVC027/// 15/09 Q1011
  • 160250Z AUTO 16005KT 9999 BKN027/// 15/09 Q1012

TAF TAF LIRZ
Valid from the 16 at 06:00 until the 17 at 06:00 UTC


160500Z 1606/1706 VRB05KT 9999 SCT040
BECMG 1608/1610 22012KT
TEMPO 1612/1616 RA
BECMG 1616/1618 VRB05KT



MET'MAP, your aeronautical weather chart ! - Copyright ORBIFLY December 2007 - Disclaimer

ORBIFLY MET'MAP TEAM :

Programming & Development : Alexandra Zaïnal
Concept & original design : Baudouin d'Aumeries
Assistance for programming : Marc-Olivier Méhu
Technical & hardware support : Manuel Goepfert

Contact : metmap@orbifly.com




SOURCES & CREDITS :

   NOAA